Air Navigation Services of Czech Republic
Airport: LKKU Updated:  01.12.2022 07:01:32  UTC
 METAR LKKU 01.12. 07:00 ...
METAR LKKU 010700Z 01010KT 6000 FEW022 M00/M03 Q1024=